Time;durP1;ratioP1;P1;durP2;ratioP2;P2;SDS_P1;SDS_P2;PMS_P1;PMS_P2;Temp;Humidity;BMP_temperature;BMP_pressure;BME280_temperature;BME280_humidity;BME280_pressure;Samples;Min_cycle;Max_cycle;Signal;HPM_P1;HPM_P2
2023/06/26 00:00:15;;;;;;;4.67;4.23;;;20.50;99.90;;;;;;5094844;28;20165;-68
2023/06/26 00:02:41;;;;;;;5.07;4.67;;;20.50;99.90;;;;;;5095858;28;20164;-68
2023/06/26 00:05:07;;;;;;;5.90;4.30;;;20.50;99.90;;;;;;5094430;28;20542;-67
2023/06/26 00:07:36;;;;;;;6.23;4.63;;;20.60;99.90;;;;;;5095069;28;20465;-67
2023/06/26 00:10:03;;;;;;;4.33;3.97;;;20.60;99.90;;;;;;5094724;28;20440;-67
2023/06/26 00:12:30;;;;;;;4.23;3.83;;;20.60;99.90;;;;;;5095221;28;20396;-66
2023/06/26 00:14:56;;;;;;;5.23;4.73;;;20.60;99.90;;;;;;5095752;28;20423;-68
2023/06/26 00:17:22;;;;;;;4.10;3.80;;;20.60;99.90;;;;;;5096064;28;20395;-66
2023/06/26 00:19:49;;;;;;;6.00;4.23;;;20.60;99.90;;;;;;5094992;28;20448;-66
2023/06/26 00:22:15;;;;;;;4.50;4.10;;;20.60;99.90;;;;;;5093999;28;20400;-68
2023/06/26 00:24:40;;;;;;;5.07;4.67;;;20.60;99.90;;;;;;5095461;28;20428;-66
2023/06/26 00:27:06;;;;;;;4.90;4.50;;;20.60;99.90;;;;;;5094575;28;20176;-66
2023/06/26 00:29:32;;;;;;;5.07;4.67;;;20.60;99.90;;;;;;5095639;28;20204;-66
2023/06/26 00:31:58;;;;;;;5.53;5.13;;;20.60;99.90;;;;;;5093728;28;20428;-66
2023/06/26 00:34:24;;;;;;;5.20;4.37;;;20.60;99.90;;;;;;5095265;28;20238;-66
2023/06/26 00:36:49;;;;;;;5.80;4.87;;;20.50;99.90;;;;;;5094898;28;20201;-66
2023/06/26 00:39:15;;;;;;;5.13;4.67;;;20.50;99.90;;;;;;5095175;28;20570;-66
2023/06/26 00:41:41;;;;;;;5.50;4.97;;;20.50;99.90;;;;;;5075628;28;20567;-68
2023/06/26 00:44:07;;;;;;;5.53;5.03;;;20.50;99.90;;;;;;5076430;28;20544;-66
2023/06/26 00:46:34;;;;;;;4.43;4.03;;;20.60;99.90;;;;;;5093652;28;20182;-67
2023/06/26 00:49:01;;;;;;;5.30;4.80;;;20.50;99.90;;;;;;5095242;28;20681;-66
2023/06/26 00:51:29;;;;;;;5.47;4.97;;;20.50;99.90;;;;;;5094007;28;20445;-68
2023/06/26 00:53:55;;;;;;;5.80;5.07;;;20.50;99.90;;;;;;5094950;28;20977;-68
2023/06/26 00:56:22;;;;;;;6.50;5.53;;;20.50;99.90;;;;;;5094935;28;20396;-66
2023/06/26 00:58:48;;;;;;;5.17;4.67;;;20.50;99.90;;;;;;5093972;28;20975;-66
2023/06/26 01:01:17;;;;;;;5.10;4.60;;;20.50;99.90;;;;;;5093118;28;20484;-66
2023/06/26 01:03:45;;;;;;;5.37;4.87;;;20.50;99.90;;;;;;5094187;28;20205;-71
2023/06/26 01:06:15;;;;;;;5.50;5.10;;;20.50;99.90;;;;;;5094688;28;20940;-70
2023/06/26 01:08:42;;;;;;;6.20;5.00;;;20.50;99.90;;;;;;5076185;28;20403;-70
2023/06/26 01:11:08;;;;;;;5.03;4.63;;;20.50;99.90;;;;;;5093171;28;20439;-69
2023/06/26 01:13:35;;;;;;;6.17;5.67;;;20.60;99.90;;;;;;5094191;28;20916;-66
2023/06/26 01:16:02;;;;;;;6.40;5.80;;;20.50;99.90;;;;;;5094748;28;20478;-67
2023/06/26 01:18:29;;;;;;;8.27;5.27;;;20.50;99.90;;;;;;5094380;28;20411;-69
2023/06/26 01:21:01;;;;;;;5.53;5.13;;;20.50;99.90;;;;;;5090845;28;20444;-68
2023/06/26 01:23:43;;;;;;;5.53;5.03;;;20.50;99.90;;;;;;5079212;28;20424;-70
2023/06/26 01:26:15;;;;;;;5.63;5.13;;;20.50;99.90;;;;;;5074149;28;20420;-70
2023/06/26 01:28:45;;;;;;;6.53;5.80;;;20.50;99.90;;;;;;5093357;28;20419;-66
2023/06/26 01:31:12;;;;;;;6.77;6.10;;;20.50;99.90;;;;;;5093285;28;20402;-68
2023/06/26 01:33:39;;;;;;;7.27;6.60;;;20.50;99.90;;;;;;5094349;28;20450;-69
2023/06/26 01:36:06;;;;;;;5.43;5.03;;;20.50;99.90;;;;;;5076341;28;20400;-68
2023/06/26 01:38:31;;;;;;;9.17;6.60;;;20.50;99.90;;;;;;5075674;28;20436;-66
2023/06/26 01:40:58;;;;;;;5.67;5.17;;;20.50;99.90;;;;;;5074291;28;20439;-66
2023/06/26 01:43:45;;;;;;;6.70;6.10;;;20.50;99.90;;;;;;5090867;28;20204;-66
2023/06/26 01:46:35;;;;;;;7.13;6.33;;;20.50;99.90;;;;;;5076150;28;20404;-66
2023/06/26 01:49:22;;;;;;;6.90;6.20;;;20.50;99.90;;;;;;5093624;28;20550;-66
2023/06/26 01:52:08;;;;;;;6.60;5.23;;;20.50;99.90;;;;;;5093121;28;20453;-70
2023/06/26 01:54:39;;;;;;;6.03;5.43;;;20.50;99.90;;;;;;5093832;28;20772;-66
2023/06/26 01:57:05;;;;;;;5.90;5.40;;;20.50;99.90;;;;;;5073047;28;20432;-66
2023/06/26 01:59:33;;;;;;;9.13;5.77;;;20.50;99.90;;;;;;5072141;28;20413;-65
2023/06/26 02:02:01;;;;;;;7.23;6.33;;;20.40;99.90;;;;;;5072161;28;20454;-66
2023/06/26 02:04:26;;;;;;;7.40;6.10;;;20.40;99.90;;;;;;5073346;28;20454;-68
2023/06/26 02:06:52;;;;;;;6.93;6.33;;;20.40;99.90;;;;;;5073285;28;20409;-66
2023/06/26 02:09:18;;;;;;;8.10;6.53;;;20.40;99.90;;;;;;5073218;28;20202;-68
2023/06/26 02:11:43;;;;;;;6.77;6.27;;;20.30;99.90;;;;;;5090083;28;21950;-66
2023/06/26 02:14:10;;;;;;;7.90;7.10;;;20.30;99.90;;;;;;5092948;28;20181;-69
2023/06/26 02:16:36;;;;;;;7.57;6.87;;;20.30;99.90;;;;;;5093333;28;20157;-66
2023/06/26 02:19:02;;;;;;;7.30;6.63;;;20.30;99.90;;;;;;5093393;28;20753;-66
2023/06/26 02:21:27;;;;;;;7.80;7.10;;;20.30;99.90;;;;;;5091825;28;20182;-69
2023/06/26 02:23:53;;;;;;;7.50;6.80;;;20.30;99.90;;;;;;5092814;28;20196;-68
2023/06/26 02:26:19;;;;;;;8.50;7.30;;;20.30;99.90;;;;;;5093607;28;20249;-66
2023/06/26 02:28:44;;;;;;;8.33;7.63;;;20.30;99.90;;;;;;5075531;28;20638;-68
2023/06/26 02:31:10;;;;;;;11.73;7.90;;;20.30;99.90;;;;;;5091342;28;20161;-69
2023/06/26 02:33:36;;;;;;;8.10;7.47;;;20.30;99.90;;;;;;5091907;28;20315;-66
2023/06/26 02:36:01;;;;;;;8.20;7.47;;;20.30;99.90;;;;;;5092545;28;20247;-68
2023/06/26 02:38:27;;;;;;;8.17;7.37;;;20.30;99.90;;;;;;5075395;28;20626;-69
2023/06/26 02:40:53;;;;;;;7.67;7.00;;;20.30;99.90;;;;;;5092505;28;20165;-68
2023/06/26 02:43:19;;;;;;;10.10;8.60;;;20.30;99.90;;;;;;5091858;28;20561;-68
2023/06/26 02:45:44;;;;;;;8.03;7.33;;;20.30;99.90;;;;;;5092998;28;20701;-66
2023/06/26 02:48:10;;;;;;;8.30;7.50;;;20.30;99.90;;;;;;5092873;28;20166;-67
2023/06/26 02:50:36;;;;;;;9.00;8.20;;;20.30;99.90;;;;;;5091092;28;20739;-69
2023/06/26 02:53:01;;;;;;;10.57;8.50;;;20.30;99.90;;;;;;5092945;28;22579;-66
2023/06/26 02:55:27;;;;;;;8.33;7.60;;;20.30;99.90;;;;;;5075136;28;20252;-68
2023/06/26 02:57:52;;;;;;;10.10;9.10;;;20.30;99.90;;;;;;5093486;28;20166;-66
2023/06/26 03:00:18;;;;;;;9.30;8.50;;;20.30;99.90;;;;;;5089904;28;20197;-66
2023/06/26 03:02:44;;;;;;;9.47;8.67;;;20.30;99.90;;;;;;5087641;28;20178;-68
2023/06/26 03:05:10;;;;;;;9.07;8.27;;;20.30;99.90;;;;;;5092949;28;20249;-68
2023/06/26 03:07:35;;;;;;;9.13;8.37;;;20.30;99.90;;;;;;5092206;28;20268;-66
2023/06/26 03:10:01;;;;;;;9.73;8.80;;;20.30;99.90;;;;;;5092621;28;20246;-68
2023/06/26 03:12:27;;;;;;;9.33;8.50;;;20.30;99.90;;;;;;5074440;28;20185;-68
2023/06/26 03:14:53;;;;;;;10.77;9.13;;;20.30;99.90;;;;;;5092063;28;20280;-68
2023/06/26 03:17:18;;;;;;;9.93;8.93;;;20.30;99.90;;;;;;5069026;28;20444;-66
2023/06/26 03:19:44;;;;;;;9.07;8.23;;;20.30;99.90;;;;;;5072639;28;20167;-66
2023/06/26 03:22:10;;;;;;;10.13;9.17;;;20.30;99.90;;;;;;5071730;28;20216;-66
2023/06/26 03:24:36;;;;;;;9.47;8.50;;;20.30;99.90;;;;;;5090351;28;20504;-68
2023/06/26 03:27:02;;;;;;;9.07;8.27;;;20.30;99.90;;;;;;5074298;28;20169;-69
2023/06/26 03:29:29;;;;;;;9.70;8.67;;;20.30;99.90;;;;;;5093015;28;20519;-66
2023/06/26 03:31:55;;;;;;;9.30;8.50;;;20.30;99.90;;;;;;5090869;28;20427;-69
2023/06/26 03:34:21;;;;;;;9.37;8.47;;;20.30;99.90;;;;;;5091880;28;20553;-68
2023/06/26 03:36:47;;;;;;;9.63;8.63;;;20.30;99.90;;;;;;5095707;28;20162;-68
2023/06/26 03:39:12;;;;;;;9.53;8.73;;;20.30;99.90;;;;;;5096506;28;20694;-69
2023/06/26 03:41:38;;;;;;;10.50;9.53;;;20.30;99.90;;;;;;5077358;28;20169;-69
2023/06/26 03:44:04;;;;;;;9.83;8.90;;;20.30;99.90;;;;;;5095609;28;20554;-69
2023/06/26 03:46:29;;;;;;;10.37;9.37;;;20.30;99.90;;;;;;5095381;28;20177;-68
2023/06/26 03:48:55;;;;;;;9.73;8.73;;;20.30;99.90;;;;;;5096338;28;20161;-69
2023/06/26 03:51:21;;;;;;;11.03;9.90;;;20.30;99.90;;;;;;5076705;28;20185;-68
2023/06/26 03:53:47;;;;;;;10.47;9.50;;;20.40;99.90;;;;;;5095399;28;20191;-66
2023/06/26 03:56:13;;;;;;;9.33;8.60;;;20.40;99.90;;;;;;5096129;28;20167;-69
2023/06/26 03:58:39;;;;;;;10.27;8.93;;;20.40;99.90;;;;;;5095541;28;20226;-69
2023/06/26 04:01:05;;;;;;;9.73;8.87;;;20.40;99.90;;;;;;5094528;28;20408;-68
2023/06/26 04:03:31;;;;;;;9.77;8.97;;;20.50;99.90;;;;;;5077471;28;20212;-68
2023/06/26 04:05:57;;;;;;;10.63;9.70;;;20.50;99.90;;;;;;5077724;28;20200;-66
2023/06/26 04:08:26;;;;;;;9.73;8.93;;;20.50;99.90;;;;;;5095882;28;20482;-66
2023/06/26 04:10:52;;;;;;;9.43;8.50;;;20.50;99.90;;;;;;5092941;28;20239;-70
2023/06/26 04:13:18;;;;;;;9.40;8.50;;;20.60;99.90;;;;;;5095177;28;20514;-67
2023/06/26 04:15:44;;;;;;;9.03;8.17;;;20.60;99.90;;;;;;5095923;28;20428;-68
2023/06/26 04:18:09;;;;;;;10.33;8.60;;;20.60;99.90;;;;;;5095071;28;20166;-68
2023/06/26 04:20:40;;;;;;;10.07;9.10;;;20.60;99.90;;;;;;5094357;28;20173;-68
2023/06/26 04:23:06;;;;;;;9.57;8.60;;;20.60;99.90;;;;;;5095861;28;20543;-65
2023/06/26 04:25:32;;;;;;;9.40;8.47;;;20.60;99.90;;;;;;5094818;28;20423;-66
2023/06/26 04:27:57;;;;;;;10.87;9.90;;;20.60;99.90;;;;;;5095463;28;20232;-67
2023/06/26 04:30:23;;;;;;;10.33;9.30;;;20.60;99.90;;;;;;5075433;28;20197;-69
2023/06/26 04:32:49;;;;;;;10.63;8.43;;;20.70;99.90;;;;;;5093788;28;20527;-66
2023/06/26 04:35:14;;;;;;;9.50;8.70;;;20.80;99.90;;;;;;5095003;28;20555;-71
2023/06/26 04:37:40;;;;;;;8.90;8.20;;;20.80;99.90;;;;;;5076321;28;20170;-68
2023/06/26 04:40:09;;;;;;;9.93;8.87;;;20.90;99.90;;;;;;5093384;28;20176;-69
2023/06/26 04:42:35;;;;;;;10.57;9.37;;;20.90;99.90;;;;;;5095217;28;20165;-69
2023/06/26 04:45:02;;;;;;;9.93;9.03;;;20.90;99.90;;;;;;5095104;28;20426;-66
2023/06/26 04:47:28;;;;;;;10.33;9.47;;;21.00;99.90;;;;;;5094242;28;20252;-68
2023/06/26 04:49:54;;;;;;;11.40;9.43;;;21.00;99.90;;;;;;5093941;28;20447;-69
2023/06/26 04:52:20;;;;;;;9.23;8.43;;;21.00;99.90;;;;;;5094168;28;20177;-64
2023/06/26 04:54:46;;;;;;;10.07;9.17;;;21.10;99.90;;;;;;5093850;28;20444;-64
2023/06/26 04:57:12;;;;;;;8.80;8.00;;;21.10;99.90;;;;;;5076905;28;20172;-64
2023/06/26 04:59:37;;;;;;;9.60;8.70;;;21.20;99.90;;;;;;5094793;28;20193;-64
2023/06/26 05:02:04;;;;;;;9.20;8.40;;;21.30;99.90;;;;;;5094016;28;20162;-65
2023/06/26 05:04:30;;;;;;;8.87;8.07;;;21.30;99.90;;;;;;5094679;28;20181;-65
2023/06/26 05:06:56;;;;;;;10.13;9.13;;;21.30;99.90;;;;;;5094338;28;20489;-65
2023/06/26 05:09:22;;;;;;;7.93;7.27;;;21.40;99.90;;;;;;5075283;28;20298;-64
2023/06/26 05:11:47;;;;;;;10.10;9.10;;;21.50;99.90;;;;;;5088636;28;20185;-64
2023/06/26 05:14:13;;;;;;;9.27;8.47;;;21.50;99.90;;;;;;5083209;28;20190;-65
2023/06/26 05:16:39;;;;;;;9.00;8.03;;;21.50;99.90;;;;;;5093811;28;20252;-65
2023/06/26 05:19:04;;;;;;;9.63;8.67;;;21.60;99.90;;;;;;5076256;28;20542;-64
2023/06/26 05:21:30;;;;;;;9.70;8.80;;;21.60;99.90;;;;;;5093765;28;20166;-64
2023/06/26 05:23:57;;;;;;;10.53;8.27;;;21.60;99.90;;;;;;5074217;28;20190;-65
2023/06/26 05:26:24;;;;;;;9.43;8.53;;;21.70;99.90;;;;;;5073109;28;20401;-65
2023/06/26 05:28:50;;;;;;;9.50;8.60;;;21.70;99.90;;;;;;5092534;28;20514;-64
2023/06/26 05:31:16;;;;;;;8.50;7.70;;;21.80;99.90;;;;;;5092705;28;20450;-64
2023/06/26 05:33:44;;;;;;;9.90;8.97;;;21.80;99.90;;;;;;5076021;28;20780;-64
2023/06/26 05:36:12;;;;;;;9.50;8.47;;;21.90;99.90;;;;;;5091388;28;20423;-64
2023/06/26 05:38:38;;;;;;;9.93;9.03;;;21.90;99.90;;;;;;5094284;28;20407;-64
2023/06/26 05:41:04;;;;;;;9.67;8.87;;;21.90;99.90;;;;;;5092297;28;20432;-65
2023/06/26 05:43:29;;;;;;;10.07;9.10;;;22.00;99.90;;;;;;5093192;28;20942;-65
2023/06/26 05:45:57;;;;;;;11.50;8.77;;;22.10;99.90;;;;;;5093245;28;20400;-68
2023/06/26 05:48:23;;;;;;;9.17;8.43;;;22.10;99.90;;;;;;5093451;28;20531;-69
2023/06/26 05:50:49;;;;;;;11.97;7.37;;;22.20;99.90;;;;;;5090960;28;20459;-68
2023/06/26 05:53:15;;;;;;;9.27;8.20;;;22.20;99.90;;;;;;5094007;28;20182;-66
2023/06/26 05:55:42;;;;;;;9.40;8.50;;;22.30;99.90;;;;;;5093849;28;20400;-66
2023/06/26 05:58:11;;;;;;;9.07;8.33;;;22.40;99.90;;;;;;5093668;28;20623;-67
2023/06/26 06:00:37;;;;;;;9.80;8.90;;;22.40;99.90;;;;;;5092940;28;20395;-69
2023/06/26 06:03:03;;;;;;;10.63;8.40;;;22.40;99.90;;;;;;5074793;28;20431;-66
2023/06/26 06:05:29;;;;;;;9.37;8.50;;;22.50;99.90;;;;;;5093198;28;20465;-66
2023/06/26 06:07:54;;;;;;;8.57;7.43;;;22.50;99.90;;;;;;5093019;28;20244;-68
2023/06/26 06:10:20;;;;;;;9.20;8.30;;;22.60;99.90;;;;;;5092791;28;20554;-69
2023/06/26 06:12:46;;;;;;;11.97;8.40;;;22.70;99.90;;;;;;5093336;28;20215;-66
2023/06/26 06:15:11;;;;;;;7.80;7.20;;;22.70;99.90;;;;;;5093546;28;20650;-67
2023/06/26 06:17:37;;;;;;;12.63;8.50;;;22.80;99.90;;;;;;5075409;28;20171;-68
2023/06/26 06:20:04;;;;;;;8.73;7.87;;;22.90;99.90;;;;;;5090980;28;20207;-69
2023/06/26 06:22:30;;;;;;;10.73;8.87;;;23.00;99.90;;;;;;5092993;28;20174;-65
2023/06/26 06:24:56;;;;;;;9.20;8.30;;;23.10;99.90;;;;;;5075159;28;20971;-68
2023/06/26 06:27:21;;;;;;;9.57;8.30;;;23.10;99.90;;;;;;5073977;28;20182;-66
2023/06/26 06:29:47;;;;;;;9.97;8.77;;;23.20;99.90;;;;;;5092842;28;20185;-70
2023/06/26 06:32:13;;;;;;;9.87;9.07;;;23.20;99.90;;;;;;5092528;28;20593;-66
2023/06/26 06:34:38;;;;;;;9.83;9.03;;;23.30;99.90;;;;;;5091812;28;20272;-68
2023/06/26 06:37:04;;;;;;;9.23;8.00;;;23.40;99.90;;;;;;5093157;28;20161;-69
2023/06/26 06:39:30;;;;;;;9.33;8.53;;;23.40;99.90;;;;;;5093020;28;20181;-68
2023/06/26 06:41:55;;;;;;;9.20;8.30;;;23.50;99.90;;;;;;5092171;28;20169;-67
2023/06/26 06:44:22;;;;;;;9.00;8.20;;;23.60;99.90;;;;;;5083477;28;20205;-67
2023/06/26 06:46:47;;;;;;;9.77;8.87;;;23.60;99.90;;;;;;5093475;28;20192;-66
2023/06/26 06:49:13;;;;;;;8.57;7.70;;;23.70;99.90;;;;;;5093236;28;20443;-66
2023/06/26 06:51:39;;;;;;;9.00;8.10;;;23.80;99.90;;;;;;5073338;28;20427;-68
2023/06/26 06:54:04;;;;;;;8.00;7.30;;;23.90;99.90;;;;;;5075249;28;20266;-66
2023/06/26 06:56:31;;;;;;;8.30;7.60;;;24.00;99.90;;;;;;5093252;28;20175;-67
2023/06/26 06:58:56;;;;;;;9.10;8.13;;;24.10;99.90;;;;;;5092641;28;20158;-68
2023/06/26 07:01:22;;;;;;;8.07;7.33;;;24.10;99.90;;;;;;5091869;28;20403;-66
2023/06/26 07:03:48;;;;;;;8.00;7.37;;;24.20;99.90;;;;;;5092395;28;20265;-67
2023/06/26 07:06:13;;;;;;;8.83;7.90;;;24.30;99.90;;;;;;5092131;28;20227;-68
2023/06/26 07:08:39;;;;;;;10.93;7.60;;;24.40;99.90;;;;;;5093031;28;20173;-66
2023/06/26 07:11:05;;;;;;;8.33;7.33;;;24.50;99.90;;;;;;5093652;28;20629;-66
2023/06/26 07:13:31;;;;;;;10.30;8.13;;;24.60;99.90;;;;;;5096846;28;20178;-68
2023/06/26 07:15:56;;;;;;;8.50;7.80;;;24.60;99.90;;;;;;5096346;28;20189;-67
2023/06/26 07:18:22;;;;;;;8.23;7.40;;;24.70;99.90;;;;;;5096590;28;20515;-67
2023/06/26 07:20:48;;;;;;;15.13;8.23;;;24.70;99.90;;;;;;5092446;28;20165;-68
2023/06/26 07:23:13;;;;;;;8.90;8.07;;;24.80;99.90;;;;;;5075802;28;20640;-68
2023/06/26 07:25:39;;;;;;;8.53;7.73;;;25.00;99.90;;;;;;5076359;28;20304;-66
2023/06/26 07:28:10;;;;;;;7.93;7.30;;;25.10;99.90;;;;;;5087368;28;20174;-66
2023/06/26 07:30:36;;;;;;;8.63;7.80;;;25.10;99.90;;;;;;5095500;28;20334;-66
2023/06/26 07:33:02;;;;;;;9.57;7.03;;;25.20;99.90;;;;;;5096690;28;20923;-67
2023/06/26 07:35:28;;;;;;;9.80;7.97;;;25.30;99.90;;;;;;5076718;28;20169;-68
2023/06/26 07:37:54;;;;;;;8.83;8.00;;;25.40;99.90;;;;;;5094974;28;20209;-67
2023/06/26 07:40:20;;;;;;;9.20;8.27;;;25.50;99.90;;;;;;5094177;28;20432;-66
2023/06/26 07:42:46;;;;;;;9.10;8.00;;;25.60;99.90;;;;;;5077718;28;20184;-67
2023/06/26 07:45:12;;;;;;;13.27;8.50;;;25.70;99.90;;;;;;5096438;28;20173;-67
2023/06/26 07:47:38;;;;;;;8.00;7.40;;;25.80;99.90;;;;;;5096293;28;20403;-69
2023/06/26 07:50:04;;;;;;;9.37;7.40;;;25.80;99.90;;;;;;5094479;28;20212;-71
2023/06/26 07:52:30;;;;;;;9.33;8.47;;;26.00;99.90;;;;;;5069761;28;20467;-66
2023/06/26 07:54:56;;;;;;;7.83;7.00;;;26.10;99.90;;;;;;5075583;28;20444;-67
2023/06/26 07:57:22;;;;;;;8.30;7.60;;;26.10;99.90;;;;;;5083805;28;20213;-69
2023/06/26 07:59:48;;;;;;;8.63;7.93;;;26.20;99.90;;;;;;5092308;28;20451;-70
2023/06/26 08:02:13;;;;;;;7.93;7.23;;;26.30;99.90;;;;;;5094796;28;20248;-66
2023/06/26 08:04:39;;;;;;;13.43;7.60;;;26.30;99.90;;;;;;5095576;28;20189;-66
2023/06/26 08:07:05;;;;;;;8.47;7.63;;;26.50;99.90;;;;;;5095683;28;20174;-67
2023/06/26 08:09:32;;;;;;;10.90;7.53;;;26.50;99.90;;;;;;5095040;28;20185;-66
2023/06/26 08:11:58;;;;;;;9.20;7.60;;;26.60;99.90;;;;;;5091844;28;20446;-68
2023/06/26 08:14:24;;;;;;;11.17;7.27;;;26.70;99.90;;;;;;5075410;28;20884;-68
2023/06/26 08:16:50;;;;;;;7.33;6.63;;;26.80;99.90;;;;;;5082848;28;20780;-68
2023/06/26 08:19:16;;;;;;;8.03;6.90;;;26.90;99.90;;;;;;5095521;28;20403;-68
2023/06/26 08:21:46;;;;;;;7.70;7.00;;;27.00;99.90;;;;;;5093494;28;20260;-68
2023/06/26 08:24:18;;;;;;;7.53;6.47;;;27.10;99.90;;;;;;5084083;28;20454;-67
2023/06/26 08:26:46;;;;;;;7.50;6.90;;;27.20;99.90;;;;;;5098375;28;20898;-68
2023/06/26 08:29:12;;;;;;;9.40;7.53;;;27.30;99.90;;;;;;5107722;28;20452;-69
2023/06/26 08:31:38;;;;;;;7.97;7.27;;;27.40;99.90;;;;;;5077012;28;20450;-67
2023/06/26 08:34:05;;;;;;;8.70;7.63;;;27.50;99.90;;;;;;5094303;28;20182;-68
2023/06/26 08:36:31;;;;;;;7.60;6.97;;;27.70;99.90;;;;;;5074155;28;20408;-68
2023/06/26 08:38:57;;;;;;;7.27;6.53;;;27.80;99.90;;;;;;5094990;28;20432;-69
2023/06/26 08:41:23;;;;;;;7.30;6.67;;;27.90;99.90;;;;;;5087566;28;20817;-67
2023/06/26 08:43:52;;;;;;;7.73;7.13;;;28.10;99.90;;;;;;5068794;28;20428;-68
2023/06/26 08:46:19;;;;;;;7.80;7.13;;;28.20;99.90;;;;;;5090165;28;20481;-69
2023/06/26 08:49:01;;;;;;;7.60;6.90;;;28.30;99.90;;;;;;5092792;28;20826;-69
2023/06/26 08:51:28;;;;;;;7.37;6.67;;;28.50;99.90;;;;;;5076170;28;20968;-67
2023/06/26 08:53:59;;;;;;;6.87;6.30;;;28.70;99.90;;;;;;5080836;28;20453;-69
2023/06/26 08:56:31;;;;;;;7.07;6.40;;;28.90;99.90;;;;;;5091990;28;20488;-66
2023/06/26 08:58:57;;;;;;;7.13;6.53;;;28.90;99.90;;;;;;5084203;28;20829;-69
2023/06/26 09:01:25;;;;;;;8.30;6.53;;;29.00;99.90;;;;;;5059258;28;20435;-67
2023/06/26 09:03:51;;;;;;;11.63;6.00;;;29.00;99.90;;;;;;5082939;28;20538;-66
2023/06/26 09:06:18;;;;;;;8.40;7.70;;;29.10;99.90;;;;;;5093194;28;20947;-66
2023/06/26 09:08:44;;;;;;;12.00;7.60;;;29.20;99.90;;;;;;5080766;28;20594;-67
2023/06/26 09:11:09;;;;;;;10.73;7.00;;;29.10;99.90;;;;;;5083137;28;20542;-67
2023/06/26 09:13:35;;;;;;;7.70;7.07;;;28.90;99.90;;;;;;5084061;28;20188;-68
2023/06/26 09:16:08;;;;;;;7.70;7.00;;;28.60;99.90;;;;;;5086612;28;20172;-68
2023/06/26 09:18:34;;;;;;;7.60;6.87;;;28.30;99.90;;;;;;5098814;28;20200;-66
2023/06/26 09:21:00;;;;;;;10.00;9.10;;;28.10;99.90;;;;;;5087842;28;20461;-70
2023/06/26 09:23:26;;;;;;;12.60;9.80;;;27.50;99.90;;;;;;5094524;28;20189;-68
2023/06/26 09:25:52;;;;;;;12.87;10.60;;;25.90;99.90;;;;;;5093623;28;20222;-70
2023/06/26 09:28:18;;;;;;;12.90;11.00;;;25.20;99.90;;;;;;5094693;28;20395;-70
2023/06/26 09:30:50;;;;;;;11.50;10.40;;;25.00;99.90;;;;;;5077619;28;20208;-70
2023/06/26 09:33:18;;;;;;;12.73;11.43;;;24.90;99.90;;;;;;5100110;28;20230;-70
2023/06/26 09:35:44;;;;;;;11.97;10.57;;;24.90;99.90;;;;;;5114944;28;20422;-69
2023/06/26 09:38:10;;;;;;;12.30;11.10;;;25.20;99.90;;;;;;5096687;28;20390;-69
2023/06/26 09:40:38;;;;;;;13.23;11.90;;;25.50;99.90;;;;;;5093294;28;20438;-67
2023/06/26 09:43:08;;;;;;;15.83;13.83;;;25.70;99.90;;;;;;5094686;28;20181;-70
2023/06/26 09:45:36;;;;;;;15.57;13.37;;;25.70;99.90;;;;;;5094436;28;20449;-69
2023/06/26 09:48:05;;;;;;;17.43;15.63;;;25.90;99.90;;;;;;5085893;28;20483;-68
2023/06/26 09:50:37;;;;;;;16.93;15.03;;;26.20;99.90;;;;;;5105421;28;20458;-69
2023/06/26 09:53:10;;;;;;;16.90;14.10;;;26.30;99.90;;;;;;5094209;28;20451;-68
2023/06/26 09:55:37;;;;;;;11.53;10.43;;;25.90;99.90;;;;;;5094241;28;20436;-69
2023/06/26 09:58:03;;;;;;;10.10;9.03;;;25.40;99.90;;;;;;5093899;28;20388;-72
2023/06/26 10:00:30;;;;;;;7.60;6.53;;;25.00;99.90;;;;;;5072891;28;20400;-68
2023/06/26 10:02:56;;;;;;;12.00;8.50;;;24.70;99.90;;;;;;5074108;28;20401;-69
2023/06/26 10:05:22;;;;;;;14.33;7.10;;;24.40;99.90;;;;;;5092057;28;20453;-68
2023/06/26 10:07:48;;;;;;;11.97;7.97;;;24.20;99.90;;;;;;5094240;28;20166;-67
2023/06/26 10:10:15;;;;;;;10.07;7.73;;;23.80;99.90;;;;;;5092667;28;20196;-69
2023/06/26 10:12:42;;;;;;;9.30;8.17;;;23.70;99.90;;;;;;5093915;28;20774;-67
2023/06/26 10:15:12;;;;;;;7.70;6.97;;;23.60;99.90;;;;;;5094222;28;20761;-66
2023/06/26 10:17:42;;;;;;;11.83;7.47;;;23.30;99.90;;;;;;5092658;28;20435;-68
2023/06/26 10:20:09;;;;;;;11.50;6.93;;;23.20;99.90;;;;;;5090358;28;20408;-68
2023/06/26 10:22:43;;;;;;;9.50;7.43;;;23.20;99.90;;;;;;5073616;28;20396;-69
2023/06/26 10:25:10;;;;;;;10.10;8.07;;;23.10;99.90;;;;;;5073511;28;20428;-68
2023/06/26 10:27:41;;;;;;;7.23;6.50;;;23.10;99.90;;;;;;5074064;28;20397;-69
2023/06/26 10:30:12;;;;;;;10.40;7.73;;;22.90;99.90;;;;;;5085934;28;20447;-70
2023/06/26 10:32:39;;;;;;;9.57;7.40;;;22.90;99.90;;;;;;5093931;28;20475;-67
2023/06/26 10:35:07;;;;;;;8.73;6.67;;;22.70;99.90;;;;;;5093494;28;20463;-69
2023/06/26 10:37:44;;;;;;;14.30;7.20;;;22.60;99.90;;;;;;5087553;28;20412;-68
2023/06/26 10:40:10;;;;;;;8.53;7.03;;;22.50;99.90;;;;;;5086639;28;20431;-69
2023/06/26 10:42:38;;;;;;;11.40;7.73;;;22.40;99.90;;;;;;5093772;28;20430;-69
2023/06/26 10:45:12;;;;;;;9.47;7.97;;;22.40;99.90;;;;;;5093950;28;20857;-68
2023/06/26 10:47:40;;;;;;;11.60;7.27;;;22.50;1.00;;;;;;5095693;28;20514;-68
2023/06/26 10:50:35;;;;;;;9.00;7.57;;;22.50;1.00;;;;;;5096852;28;20451;-71
2023/06/26 10:53:36;;;;;;;10.00;7.50;;;22.30;1.00;;;;;;5080582;28;20439;-68
2023/06/26 10:56:05;;;;;;;20.27;6.90;;;22.10;1.00;;;;;;5078521;28;20431;-67
2023/06/26 10:58:41;;;;;;;10.47;7.10;;;22.00;1.00;;;;;;5093092;28;20426;-68
2023/06/26 11:01:21;;;;;;;9.93;8.00;;;21.90;1.00;;;;;;5076266;28;20404;-68
2023/06/26 11:04:01;;;;;;;12.43;8.87;;;21.50;1.00;;;;;;5079602;28;20859;-69
2023/06/26 11:06:27;;;;;;;8.80;7.90;;;21.10;1.00;;;;;;5097360;28;20740;-70
2023/06/26 11:09:03;;;;;;;10.90;8.33;;;21.00;1.00;;;;;;5097446;28;20399;-69
2023/06/26 11:11:51;;;;;;;9.77;8.77;;;21.20;1.00;;;;;;5084125;28;20443;-70
2023/06/26 11:14:21;;;;;;;12.00;9.20;;;21.00;1.00;;;;;;5097274;28;20423;-69
2023/06/26 11:16:47;;;;;;;10.90;8.90;;;21.00;1.00;;;;;;5093530;28;20423;-70
2023/06/26 11:19:14;;;;;;;9.73;8.83;;;21.00;1.00;;;;;;5079306;28;20396;-72
2023/06/26 11:21:40;;;;;;;14.03;9.60;;;20.90;1.00;;;;;;5096235;28;20403;-69
2023/06/26 11:24:11;;;;;;;10.00;9.10;;;21.00;1.00;;;;;;5097446;28;20411;-68
2023/06/26 11:26:41;;;;;;;14.50;9.93;;;21.00;1.00;;;;;;5096973;28;20896;-68
2023/06/26 11:29:08;;;;;;;10.60;9.50;;;21.10;1.00;;;;;;5091368;28;20430;-70
2023/06/26 11:31:36;;;;;;;12.20;8.83;;;21.20;1.00;;;;;;5095955;28;20487;-70
2023/06/26 11:34:16;;;;;;;9.70;8.77;;;21.30;1.00;;;;;;5078769;28;20438;-68
2023/06/26 11:36:45;;;;;;;10.20;9.23;;;21.50;1.00;;;;;;5097048;28;20406;-69
2023/06/26 11:39:11;;;;;;;14.00;9.20;;;22.10;1.00;;;;;;5097001;28;20403;-71
2023/06/26 11:41:38;;;;;;;9.00;8.20;;;22.50;1.00;;;;;;5077457;28;20434;-70
2023/06/26 11:44:14;;;;;;;9.67;8.13;;;22.70;1.00;;;;;;5069977;28;20276;-68
2023/06/26 11:46:39;;;;;;;13.97;7.93;;;23.20;1.00;;;;;;5092237;28;20514;-70
2023/06/26 11:49:07;;;;;;;15.33;7.87;;;23.80;1.00;;;;;;5078941;28;20494;-71
2023/06/26 11:51:35;;;;;;;8.97;7.37;;;24.10;1.00;;;;;;5095755;28;20162;-68
2023/06/26 11:54:03;;;;;;;7.60;6.80;;;24.70;1.00;;;;;;5096383;28;20423;-67
2023/06/26 11:56:28;;;;;;;10.33;7.40;;;24.80;1.00;;;;;;5095946;28;20892;-70
2023/06/26 11:59:06;;;;;;;12.80;7.00;;;24.70;1.00;;;;;;5094965;28;20450;-66
2023/06/26 12:01:36;;;;;;;7.57;5.80;;;24.30;1.00;;;;;;5095406;28;20464;-68
2023/06/26 12:04:04;;;;;;;9.13;6.27;;;24.20;1.00;;;;;;5078190;28;20551;-67
2023/06/26 12:06:35;;;;;;;8.10;5.60;;;24.10;1.00;;;;;;5076289;28;20765;-67
2023/06/26 12:09:05;;;;;;;7.33;5.60;;;24.70;1.00;;;;;;5076242;28;20434;-67
2023/06/26 12:11:33;;;;;;;5.97;3.50;;;24.80;1.00;;;;;;5077936;28;20435;-68
2023/06/26 12:13:59;;;;;;;4.90;2.40;;;24.10;99.90;;;;;;5096068;28;20416;-67
2023/06/26 12:16:25;;;;;;;5.27;2.90;;;23.30;99.90;;;;;;5096464;28;20760;-69
2023/06/26 12:18:57;;;;;;;7.60;2.70;;;23.10;99.90;;;;;;5095766;28;20392;-69
2023/06/26 12:21:39;;;;;;;4.27;2.50;;;23.80;99.90;;;;;;5070628;28;20177;-68
2023/06/26 12:24:07;;;;;;;4.03;2.00;;;25.00;99.90;;;;;;5077914;28;20420;-68
2023/06/26 12:26:33;;;;;;;9.73;3.20;;;26.10;99.90;;;;;;5095883;28;20492;-68
2023/06/26 12:29:11;;;;;;;5.70;2.50;;;26.00;99.90;;;;;;5096074;28;20392;-67
2023/06/26 12:31:43;;;;;;;7.10;2.37;;;25.30;99.90;;;;;;5093444;28;20426;-69
2023/06/26 12:34:17;;;;;;;4.67;2.37;;;24.90;99.90;;;;;;5077087;28;20446;-69
2023/06/26 12:36:50;;;;;;;8.70;2.63;;;24.90;99.90;;;;;;5087874;28;20487;-67
2023/06/26 12:39:24;;;;;;;3.50;1.90;;;25.00;99.90;;;;;;5075857;28;20385;-66
2023/06/26 12:41:57;;;;;;;2.80;2.57;;;25.50;99.90;;;;;;5074538;28;20400;-67
2023/06/26 12:44:28;;;;;;;9.90;2.67;;;25.80;99.90;;;;;;5078049;28;20442;-68
2023/06/26 12:47:01;;;;;;;7.40;2.03;;;25.70;99.90;;;;;;5077247;28;20944;-69